Time;durP1;ratioP1;P1;durP2;ratioP2;P2;SDS_P1;SDS_P2;PMS_P1;PMS_P2;Temp;Humidity;BMP_temperature;BMP_pressure;BME280_temperature;BME280_humidity;BME280_pressure;Samples;Min_cycle;Max_cycle;Signal;HPM_P1;HPM_P2
2021/07/08 00:00:26;;;;;;;;;;;23.40;64.50;;;;;;5018116;28;20360;-62
2021/07/08 00:02:52;;;;;;;;;;;23.40;64.50;;;;;;5017408;28;20422;-61
2021/07/08 00:05:18;;;;;;;;;;;23.40;64.50;;;;;;5019379;28;19917;-62
2021/07/08 00:07:43;;;;;;;;;;;23.40;64.50;;;;;;5013886;28;20338;-62
2021/07/08 00:10:09;;;;;;;;;;;23.40;64.40;;;;;;5019105;28;19925;-61
2021/07/08 00:12:35;;;;;;;;;;;23.40;64.40;;;;;;5017669;28;19921;-62
2021/07/08 00:15:00;;;;;;;;;;;23.40;64.40;;;;;;5020501;28;20447;-61
2021/07/08 00:17:26;;;;;;;;;;;23.40;64.40;;;;;;5015832;28;19942;-63
2021/07/08 00:19:51;;;;;;;;;;;23.40;64.40;;;;;;5019149;28;20386;-62
2021/07/08 00:22:17;;;;;;;;;;;23.40;64.40;;;;;;5019502;28;19932;-62
2021/07/08 00:24:42;;;;;;;;;;;23.40;64.40;;;;;;5016633;28;19967;-62
2021/07/08 00:27:07;;;;;;;;;;;23.40;64.40;;;;;;5019276;28;19925;-59
2021/07/08 00:29:33;;;;;;;;;;;23.40;64.30;;;;;;5015870;28;20571;-61
2021/07/08 00:31:59;;;;;;;;;;;23.40;64.30;;;;;;5019489;28;19921;-62
2021/07/08 00:34:24;;;;;;;;;;;23.40;64.30;;;;;;5017086;28;20453;-64
2021/07/08 00:36:50;;;;;;;;;;;23.40;64.30;;;;;;5018148;28;19917;-62
2021/07/08 00:39:15;;;;;;;;;;;23.40;64.20;;;;;;5015461;28;19923;-62
2021/07/08 00:41:42;;;;;;;;;;;23.30;64.20;;;;;;5019073;28;19925;-62
2021/07/08 00:44:08;;;;;;;;;;;23.40;64.20;;;;;;5015237;28;19925;-62
2021/07/08 00:46:33;;;;;;;;;;;23.40;64.20;;;;;;5000860;28;19928;-62
2021/07/08 00:48:59;;;;;;;;;;;23.40;64.20;;;;;;5016063;28;19956;-61
2021/07/08 00:51:24;;;;;;;;;;;23.30;64.20;;;;;;5018053;28;19921;-68
2021/07/08 00:53:50;;;;;;;;;;;23.30;64.10;;;;;;5017231;28;19971;-61
2021/07/08 00:56:15;;;;;;;;;;;23.30;64.00;;;;;;5018586;28;19917;-60
2021/07/08 00:58:45;;;;;;;;;;;23.40;64.00;;;;;;5017149;28;19936;-60
2021/07/08 01:01:10;;;;;;;;;;;23.40;64.00;;;;;;5016774;28;19921;-61
2021/07/08 01:03:36;;;;;;;;;;;23.30;64.00;;;;;;5017403;28;20283;-60
2021/07/08 01:06:01;;;;;;;;;;;23.30;63.90;;;;;;5018287;28;19948;-61
2021/07/08 01:08:26;;;;;;;;;;;23.30;64.00;;;;;;5015244;28;19936;-62
2021/07/08 01:10:52;;;;;;;;;;;23.30;63.90;;;;;;5016592;28;19928;-63
2021/07/08 01:13:18;;;;;;;;;;;23.30;64.00;;;;;;5015020;28;20416;-62
2021/07/08 01:15:43;;;;;;;;;;;23.40;64.00;;;;;;5056846;22;20059;-69
2021/07/08 01:18:09;;;;;;;;;;;23.30;63.90;;;;;;5042840;28;19924;-69
2021/07/08 01:20:35;;;;;;;;;;;23.30;63.90;;;;;;5024543;28;20148;-69
2021/07/08 01:23:01;;;;;;;;;;;23.30;64.00;;;;;;5025603;28;19921;-69
2021/07/08 01:25:27;;;;;;;;;;;23.30;64.00;;;;;;5037371;28;20003;-69
2021/07/08 01:27:53;;;;;;;;;;;23.30;64.00;;;;;;5034119;28;20401;-69
2021/07/08 01:30:18;;;;;;;;;;;23.30;63.90;;;;;;5038977;28;19952;-69
2021/07/08 01:32:44;;;;;;;;;;;23.30;63.90;;;;;;5035857;28;19929;-69
2021/07/08 01:35:10;;;;;;;;;;;23.30;63.90;;;;;;5038715;28;19913;-68
2021/07/08 01:37:35;;;;;;;;;;;23.30;63.90;;;;;;5038868;28;19948;-68
2021/07/08 01:40:01;;;;;;;;;;;23.30;63.90;;;;;;5047143;28;20310;-69
2021/07/08 01:42:27;;;;;;;;;;;23.30;63.90;;;;;;5049527;28;19920;-69
2021/07/08 01:44:52;;;;;;;;;;;23.30;63.90;;;;;;5038277;28;19957;-69
2021/07/08 01:47:18;;;;;;;;;;;23.30;63.90;;;;;;5040290;28;19917;-69
2021/07/08 01:49:43;;;;;;;;;;;23.30;63.90;;;;;;5041332;28;20039;-68
2021/07/08 01:52:09;;;;;;;;;;;23.30;63.90;;;;;;5026463;28;19917;-69
2021/07/08 01:54:34;;;;;;;;;;;23.30;63.90;;;;;;5037813;28;19928;-69
2021/07/08 01:57:00;;;;;;;;;;;23.30;63.90;;;;;;5043039;28;20464;-69
2021/07/08 01:59:25;;;;;;;;;;;23.30;63.80;;;;;;5043107;28;19952;-68
2021/07/08 02:01:51;;;;;;;;;;;23.30;63.80;;;;;;5041820;28;19924;-69
2021/07/08 02:04:16;;;;;;;;;;;23.30;63.80;;;;;;5039629;28;19924;-68
2021/07/08 02:06:41;;;;;;;;;;;23.30;63.80;;;;;;5044643;28;21752;-69
2021/07/08 02:09:07;;;;;;;;;;;23.30;63.80;;;;;;5026912;28;19925;-68
2021/07/08 02:11:32;;;;;;;;;;;23.20;63.80;;;;;;5037343;28;19917;-68
2021/07/08 02:13:58;;;;;;;;;;;23.20;63.70;;;;;;5047539;28;20395;-69
2021/07/08 02:16:23;;;;;;;;;;;23.30;63.80;;;;;;5048813;28;19920;-69
2021/07/08 02:18:49;;;;;;;;;;;23.20;63.80;;;;;;5050324;28;19932;-69
2021/07/08 02:21:14;;;;;;;;;;;23.30;63.70;;;;;;5052979;28;20015;-69
2021/07/08 02:23:40;;;;;;;;;;;23.30;63.80;;;;;;5044055;28;20442;-69
2021/07/08 02:26:05;;;;;;;;;;;23.30;63.80;;;;;;5037733;28;19917;-69
2021/07/08 02:28:31;;;;;;;;;;;23.30;63.80;;;;;;5045650;28;19927;-69
2021/07/08 02:30:57;;;;;;;;;;;23.20;63.70;;;;;;5049512;28;19928;-69
2021/07/08 02:33:22;;;;;;;;;;;23.20;63.70;;;;;;5048516;28;19925;-69
2021/07/08 02:35:48;;;;;;;;;;;23.20;63.70;;;;;;5052157;28;20474;-70
2021/07/08 02:38:13;;;;;;;;;;;23.30;63.70;;;;;;5052840;28;19917;-69
2021/07/08 02:40:39;;;;;;;;;;;23.20;63.70;;;;;;5046754;28;19963;-69
2021/07/08 02:43:05;;;;;;;;;;;23.20;63.70;;;;;;5046856;28;20403;-69
2021/07/08 02:45:31;;;;;;;;;;;23.20;63.60;;;;;;5049630;28;19935;-68
2021/07/08 02:47:57;;;;;;;;;;;23.20;63.70;;;;;;5045887;28;20391;-69
2021/07/08 02:50:23;;;;;;;;;;;23.20;63.60;;;;;;5051479;28;20505;-69
2021/07/08 02:52:48;;;;;;;;;;;23.20;63.70;;;;;;5058674;28;19975;-69
2021/07/08 02:55:14;;;;;;;;;;;23.20;63.70;;;;;;5049810;28;19917;-69
2021/07/08 02:57:39;;;;;;;;;;;23.20;63.60;;;;;;5050654;28;19925;-69
2021/07/08 03:00:05;;;;;;;;;;;23.20;63.60;;;;;;5048139;28;19924;-69
2021/07/08 03:02:31;;;;;;;;;;;23.20;63.60;;;;;;5045842;28;19920;-68
2021/07/08 03:04:56;;;;;;;;;;;23.20;63.60;;;;;;5051144;28;19986;-68
2021/07/08 03:07:22;;;;;;;;;;;23.20;63.60;;;;;;5053690;28;19924;-68
2021/07/08 03:09:47;;;;;;;;;;;23.20;63.50;;;;;;5049493;28;19921;-68
2021/07/08 03:12:12;;;;;;;;;;;23.20;63.60;;;;;;5045425;28;20376;-68
2021/07/08 03:14:38;;;;;;;;;;;23.10;63.50;;;;;;5045992;28;19948;-67
2021/07/08 03:17:03;;;;;;;;;;;23.10;63.50;;;;;;5044536;28;19921;-69
2021/07/08 03:19:29;;;;;;;;;;;23.10;63.50;;;;;;5050480;28;19929;-68
2021/07/08 03:21:55;;;;;;;;;;;23.20;63.70;;;;;;5048201;28;19956;-69
2021/07/08 03:24:20;;;;;;;;;;;23.20;63.80;;;;;;5046810;28;20511;-70
2021/07/08 03:26:47;;;;;;;;;;;23.10;63.60;;;;;;5048857;28;21348;-69
2021/07/08 03:29:13;;;;;;;;;;;23.10;63.70;;;;;;5049849;28;19944;-68
2021/07/08 03:31:38;;;;;;;;;;;23.10;63.60;;;;;;5045752;28;19917;-69
2021/07/08 03:34:04;;;;;;;;;;;23.10;63.70;;;;;;5049967;28;19924;-70
2021/07/08 03:36:29;;;;;;;;;;;23.10;63.80;;;;;;5043710;28;19917;-69
2021/07/08 03:38:54;;;;;;;;;;;23.10;63.90;;;;;;5046151;28;19917;-70
2021/07/08 03:41:20;;;;;;;;;;;23.10;63.90;;;;;;5040975;28;20299;-69
2021/07/08 03:43:45;;;;;;;;;;;23.10;63.90;;;;;;5048382;28;19924;-68
2021/07/08 03:46:11;;;;;;;;;;;23.20;64.10;;;;;;5044380;28;20395;-67
2021/07/08 03:48:36;;;;;;;;;;;23.20;64.10;;;;;;5046674;28;19936;-67
2021/07/08 03:51:02;;;;;;;;;;;23.20;64.10;;;;;;5043492;28;20345;-67
2021/07/08 03:53:27;;;;;;;;;;;23.20;64.10;;;;;;5047008;28;19920;-68
2021/07/08 03:55:53;;;;;;;;;;;23.30;64.10;;;;;;5024844;28;19982;-68
2021/07/08 03:58:18;;;;;;;;;;;23.30;64.30;;;;;;5045823;28;19916;-68
2021/07/08 04:00:44;;;;;;;;;;;23.20;64.50;;;;;;5046194;28;19923;-67
2021/07/08 04:03:10;;;;;;;;;;;23.20;64.80;;;;;;5050333;28;19917;-68
2021/07/08 04:05:36;;;;;;;;;;;23.30;64.80;;;;;;5040122;28;20371;-67
2021/07/08 04:08:02;;;;;;;;;;;23.30;65.10;;;;;;5045254;28;19924;-66
2021/07/08 04:10:28;;;;;;;;;;;23.20;65.10;;;;;;5048105;28;19923;-67
2021/07/08 04:12:53;;;;;;;;;;;23.30;65.00;;;;;;5042180;28;20011;-66
2021/07/08 04:15:18;;;;;;;;;;;23.30;65.40;;;;;;5039631;28;19921;-65
2021/07/08 04:17:44;;;;;;;;;;;23.20;65.30;;;;;;5041083;28;19917;-67
2021/07/08 04:20:10;;;;;;;;;;;23.20;65.20;;;;;;5043065;28;19939;-66
2021/07/08 04:22:35;;;;;;;;;;;23.20;65.00;;;;;;5047577;28;19921;-66
2021/07/08 04:25:01;;;;;;;;;;;23.20;65.20;;;;;;5037847;28;20418;-66
2021/07/08 04:27:27;;;;;;;;;;;23.20;65.30;;;;;;5038274;28;19928;-66
2021/07/08 04:29:52;;;;;;;;;;;23.20;65.20;;;;;;5035456;28;19967;-66
2021/07/08 04:32:18;;;;;;;;;;;23.20;65.20;;;;;;5045754;28;20421;-66
2021/07/08 04:34:43;;;;;;;;;;;23.20;65.20;;;;;;5047014;28;19917;-66
2021/07/08 04:37:09;;;;;;;;;;;23.20;65.10;;;;;;5044904;28;19923;-67
2021/07/08 04:39:34;;;;;;;;;;;23.20;65.20;;;;;;5045670;28;19947;-66
2021/07/08 04:42:00;;;;;;;;;;;23.20;65.20;;;;;;5041150;28;19921;-67
2021/07/08 04:44:25;;;;;;;;;;;23.20;64.80;;;;;;5046524;28;19916;-65
2021/07/08 04:46:50;;;;;;;;;;;23.20;64.70;;;;;;5044600;28;20388;-66
2021/07/08 04:49:16;;;;;;;;;;;23.20;64.80;;;;;;5038762;28;20026;-68
2021/07/08 04:51:42;;;;;;;;;;;23.10;64.70;;;;;;5047935;28;19920;-67
2021/07/08 04:54:07;;;;;;;;;;;23.10;64.50;;;;;;5046423;28;19925;-67
2021/07/08 04:56:32;;;;;;;;;;;23.10;64.50;;;;;;5042498;28;20444;-67
2021/07/08 04:58:58;;;;;;;;;;;23.20;64.50;;;;;;5029260;28;19921;-68
2021/07/08 05:01:23;;;;;;;;;;;23.20;64.60;;;;;;5039402;28;19917;-66
2021/07/08 05:03:49;;;;;;;;;;;23.10;64.50;;;;;;5054081;28;19924;-67
2021/07/08 05:06:14;;;;;;;;;;;23.20;64.30;;;;;;5045343;28;19943;-68
2021/07/08 05:08:41;;;;;;;;;;;23.10;64.30;;;;;;5043973;28;19924;-67
2021/07/08 05:11:07;;;;;;;;;;;23.10;64.50;;;;;;5034886;28;20431;-67
2021/07/08 05:13:32;;;;;;;;;;;23.10;64.50;;;;;;5040070;28;19917;-68
2021/07/08 05:15:58;;;;;;;;;;;23.10;64.40;;;;;;5048404;28;20011;-68
2021/07/08 05:18:23;;;;;;;;;;;23.10;64.40;;;;;;5044318;28;19977;-63
2021/07/08 05:20:49;;;;;;;;;;;23.10;64.80;;;;;;5044240;28;19960;-66
2021/07/08 05:23:18;;;;;;;;;;;23.10;64.80;;;;;;5020232;28;19917;-66
2021/07/08 05:25:44;;;;;;;;;;;23.10;64.90;;;;;;5017372;28;19913;-67
2021/07/08 05:28:13;;;;;;;;;;;23.10;65.00;;;;;;5032994;28;20272;-64
2021/07/08 05:30:39;;;;;;;;;;;23.10;64.90;;;;;;5025728;28;19917;-67
2021/07/08 05:33:04;;;;;;;;;;;23.20;64.90;;;;;;5035930;28;19913;-66
2021/07/08 05:35:29;;;;;;;;;;;23.10;64.90;;;;;;5020063;28;19917;-67
2021/07/08 05:37:55;;;;;;;;;;;23.10;64.70;;;;;;5028595;28;19917;-67
2021/07/08 05:40:20;;;;;;;;;;;23.10;64.80;;;;;;5030928;28;20344;-67
2021/07/08 05:42:46;;;;;;;;;;;23.20;64.90;;;;;;5030124;28;19921;-67
2021/07/08 05:45:11;;;;;;;;;;;23.10;64.80;;;;;;5036147;28;20454;-64
2021/07/08 05:47:37;;;;;;;;;;;23.10;64.80;;;;;;5027883;28;20016;-62
2021/07/08 05:50:02;;;;;;;;;;;23.10;64.80;;;;;;5036492;28;20529;-64
2021/07/08 05:52:28;;;;;;;;;;;23.10;64.70;;;;;;5038944;28;20039;-63
2021/07/08 05:54:54;;;;;;;;;;;23.10;64.70;;;;;;5039671;28;19913;-67
2021/07/08 05:57:19;;;;;;;;;;;23.10;64.70;;;;;;5039083;28;20515;-66
2021/07/08 05:59:45;;;;;;;;;;;23.10;64.70;;;;;;5043322;28;19916;-66
2021/07/08 06:02:10;;;;;;;;;;;23.10;64.90;;;;;;5032883;28;19921;-67
2021/07/08 06:04:35;;;;;;;;;;;23.10;64.70;;;;;;5032344;28;19913;-64
2021/07/08 06:07:01;;;;;;;;;;;23.10;64.70;;;;;;5032174;28;19924;-68
2021/07/08 06:09:26;;;;;;;;;;;23.10;64.70;;;;;;5034742;28;19917;-64
2021/07/08 06:11:53;;;;;;;;;;;23.20;64.70;;;;;;5030458;28;20280;-67
2021/07/08 06:14:18;;;;;;;;;;;23.10;64.70;;;;;;5028841;28;19913;-67
2021/07/08 06:16:44;;;;;;;;;;;23.10;64.70;;;;;;5040733;28;19927;-64
2021/07/08 06:19:09;;;;;;;;;;;23.10;64.70;;;;;;5038906;28;19928;-67
2021/07/08 06:21:35;;;;;;;;;;;23.10;64.80;;;;;;5029715;28;20280;-64
2021/07/08 06:24:00;;;;;;;;;;;23.10;65.40;;;;;;5035358;28;19917;-68
2021/07/08 06:26:26;;;;;;;;;;;23.10;64.70;;;;;;5025619;28;19920;-68
2021/07/08 06:28:51;;;;;;;;;;;23.10;64.70;;;;;;5032316;28;19972;-65
2021/07/08 06:31:16;;;;;;;;;;;23.10;64.80;;;;;;5034110;28;19929;-68
2021/07/08 06:33:44;;;;;;;;;;;23.10;64.70;;;;;;5039290;28;19913;-67
2021/07/08 06:36:09;;;;;;;;;;;23.10;64.70;;;;;;5034871;28;20627;-65
2021/07/08 06:38:35;;;;;;;;;;;23.10;64.80;;;;;;5039075;28;19921;-65
2021/07/08 06:41:00;;;;;;;;;;;23.10;64.80;;;;;;5043404;28;19920;-67
2021/07/08 06:43:26;;;;;;;;;;;23.10;64.80;;;;;;5035774;28;19913;-67
2021/07/08 06:45:51;;;;;;;;;;;23.10;64.80;;;;;;5032375;28;19920;-64
2021/07/08 06:48:16;;;;;;;;;;;23.10;64.80;;;;;;5041217;28;20372;-67
2021/07/08 06:50:43;;;;;;;;;;;23.00;64.80;;;;;;5041456;28;19913;-67
2021/07/08 06:53:09;;;;;;;;;;;23.10;64.90;;;;;;5040864;28;20001;-67
2021/07/08 06:55:34;;;;;;;;;;;23.10;64.80;;;;;;5012182;28;20008;-67
2021/07/08 06:57:59;;;;;;;;;;;23.00;64.90;;;;;;5025913;28;19921;-68
2021/07/08 07:00:29;;;;;;;;;;;23.00;64.70;;;;;;5043916;28;19919;-67
2021/07/08 07:02:55;;;;;;;;;;;23.10;64.90;;;;;;5044537;28;19917;-66
2021/07/08 07:05:21;;;;;;;;;;;23.00;64.80;;;;;;5008848;28;19921;-66
2021/07/08 07:07:47;;;;;;;;;;;23.00;64.80;;;;;;5040342;28;19926;-65
2021/07/08 07:10:12;;;;;;;;;;;23.00;64.80;;;;;;5040141;28;19974;-67
2021/07/08 07:12:41;;;;;;;;;;;23.00;64.90;;;;;;5027782;28;19917;-67
2021/07/08 07:15:07;;;;;;;;;;;23.00;64.90;;;;;;5027498;28;19913;-68
2021/07/08 07:17:33;;;;;;;;;;;23.00;64.90;;;;;;5027235;28;19921;-67
2021/07/08 07:19:59;;;;;;;;;;;23.00;64.80;;;;;;5039207;28;19917;-67
2021/07/08 07:22:24;;;;;;;;;;;23.00;65.50;;;;;;5042897;28;19920;-68
2021/07/08 07:24:52;;;;;;;;;;;23.00;64.90;;;;;;5041305;28;20457;-68
2021/07/08 07:27:17;;;;;;;;;;;23.00;65.00;;;;;;5030827;28;19927;-68
2021/07/08 07:29:43;;;;;;;;;;;23.00;65.00;;;;;;5040121;28;19917;-67
2021/07/08 07:32:08;;;;;;;;;;;23.00;65.00;;;;;;5031095;28;19920;-68
2021/07/08 07:34:34;;;;;;;;;;;23.00;65.00;;;;;;5030814;28;19913;-68
2021/07/08 07:36:59;;;;;;;;;;;23.00;65.00;;;;;;5039346;28;19919;-67
2021/07/08 07:39:25;;;;;;;;;;;23.00;65.00;;;;;;5033808;28;19921;-67
2021/07/08 07:41:50;;;;;;;;;;;23.00;65.10;;;;;;5044986;28;20263;-67
2021/07/08 07:44:15;;;;;;;;;;;23.00;65.20;;;;;;5038360;28;19940;-68
2021/07/08 07:46:41;;;;;;;;;;;23.00;65.20;;;;;;5037259;28;19917;-67
2021/07/08 07:49:08;;;;;;;;;;;23.00;65.30;;;;;;5041832;28;19967;-67
2021/07/08 07:51:34;;;;;;;;;;;23.00;65.40;;;;;;5033131;28;19921;-67
2021/07/08 07:53:59;;;;;;;;;;;23.00;65.40;;;;;;5045144;28;19913;-68
2021/07/08 07:56:25;;;;;;;;;;;23.00;65.40;;;;;;5035326;28;19967;-68
2021/07/08 07:58:50;;;;;;;;;;;23.00;65.40;;;;;;5034268;28;19966;-68
2021/07/08 08:01:16;;;;;;;;;;;23.00;65.40;;;;;;5025603;28;20379;-68
2021/07/08 08:03:42;;;;;;;;;;;23.00;65.40;;;;;;5041285;28;19917;-67
2021/07/08 08:08:52;;;;;;;;;;;23.00;65.50;;;;;;5040937;28;20450;-67
2021/07/08 08:11:19;;;;;;;;;;;23.00;65.50;;;;;;5033537;28;19929;-66
2021/07/08 08:13:45;;;;;;;;;;;23.00;65.50;;;;;;5034515;28;19917;-66
2021/07/08 08:16:10;;;;;;;;;;;23.00;65.60;;;;;;5020194;28;20005;-66
2021/07/08 08:18:36;;;;;;;;;;;23.00;65.50;;;;;;5007803;28;19952;-67
2021/07/08 08:21:01;;;;;;;;;;;23.00;65.60;;;;;;5039547;28;19913;-67
2021/07/08 08:23:26;;;;;;;;;;;22.90;65.40;;;;;;5038640;28;19914;-67
2021/07/08 08:25:52;;;;;;;;;;;22.90;65.50;;;;;;5029788;28;19921;-66
2021/07/08 08:28:17;;;;;;;;;;;23.00;65.60;;;;;;5033947;28;19927;-66
2021/07/08 08:30:44;;;;;;;;;;;22.90;65.60;;;;;;5029942;28;19948;-66
2021/07/08 08:33:10;;;;;;;;;;;23.00;65.60;;;;;;5025885;28;20009;-66
2021/07/08 08:35:35;;;;;;;;;;;22.90;65.60;;;;;;5041975;28;19957;-66
2021/07/08 08:38:01;;;;;;;;;;;22.90;65.60;;;;;;5039127;28;19913;-67
2021/07/08 08:40:27;;;;;;;;;;;23.00;65.70;;;;;;5029858;28;19913;-66
2021/07/08 08:42:52;;;;;;;;;;;22.90;65.70;;;;;;5036165;28;20355;-67
2021/07/08 08:45:18;;;;;;;;;;;22.90;65.70;;;;;;5027862;28;19921;-67
2021/07/08 08:47:52;;;;;;;;;;;22.90;65.70;;;;;;5038237;28;19913;-68
2021/07/08 08:50:18;;;;;;;;;;;22.90;65.60;;;;;;5028058;28;19929;-67
2021/07/08 08:52:44;;;;;;;;;;;22.90;65.70;;;;;;5040448;28;19913;-67
2021/07/08 08:55:10;;;;;;;;;;;23.00;65.70;;;;;;5019949;28;20015;-67
2021/07/08 08:57:35;;;;;;;;;;;22.90;65.70;;;;;;5033406;28;19921;-67
2021/07/08 09:00:01;;;;;;;;;;;23.00;65.80;;;;;;5029492;28;19917;-68
2021/07/08 09:02:26;;;;;;;;;;;22.90;65.70;;;;;;5038092;28;19963;-67
2021/07/08 09:04:52;;;;;;;;;;;22.90;65.70;;;;;;5033865;28;19913;-67
2021/07/08 09:07:21;;;;;;;;;;;22.90;66.30;;;;;;5024489;28;20949;-66
2021/07/08 09:09:47;;;;;;;;;;;22.90;65.80;;;;;;5015423;28;19917;-66
2021/07/08 09:12:13;;;;;;;;;;;22.90;65.80;;;;;;5024693;28;19913;-66
2021/07/08 09:14:39;;;;;;;;;;;22.90;65.70;;;;;;5037597;28;20344;-67
2021/07/08 09:17:14;;;;;;;;;;;22.90;65.70;;;;;;5032808;28;19927;-65
2021/07/08 09:19:39;;;;;;;;;;;22.90;65.80;;;;;;5027545;28;19964;-66
2021/07/08 09:22:05;;;;;;;;;;;22.90;65.70;;;;;;5028393;28;19917;-67
2021/07/08 09:24:32;;;;;;;;;;;22.90;65.90;;;;;;5025311;28;20365;-67
2021/07/08 09:27:02;;;;;;;;;;;22.90;65.70;;;;;;5031868;28;20013;-67
2021/07/08 09:29:28;;;;;;;;;;;22.90;66.00;;;;;;5032960;28;19917;-68
2021/07/08 09:31:55;;;;;;;;;;;22.90;65.90;;;;;;5036550;28;20098;-68
2021/07/08 09:34:24;;;;;;;;;;;22.90;65.90;;;;;;5027331;28;20206;-68
2021/07/08 09:37:06;;;;;;;;;;;22.90;66.00;;;;;;5036137;28;19913;-68
2021/07/08 09:39:32;;;;;;;;;;;22.90;66.10;;;;;;5039838;28;19928;-67
2021/07/08 09:41:58;;;;;;;;;;;22.90;66.20;;;;;;5035901;28;19914;-67
2021/07/08 09:44:24;;;;;;;;;;;22.90;66.10;;;;;;5029294;28;20384;-69
2021/07/08 09:46:50;;;;;;;;;;;22.90;66.10;;;;;;5038901;28;19971;-68
2021/07/08 09:49:15;;;;;;;;;;;22.90;66.10;;;;;;5030579;28;20288;-68
2021/07/08 09:51:41;;;;;;;;;;;22.80;66.10;;;;;;5034925;28;19919;-68
2021/07/08 09:54:11;;;;;;;;;;;22.90;66.20;;;;;;5018483;28;19917;-66
2021/07/08 09:56:45;;;;;;;;;;;22.90;66.20;;;;;;5032872;28;19949;-67
2021/07/08 09:59:11;;;;;;;;;;;22.90;66.30;;;;;;5028340;28;19913;-68
2021/07/08 10:01:36;;;;;;;;;;;22.90;66.30;;;;;;5032519;28;20295;-68
2021/07/08 10:04:02;;;;;;;;;;;22.90;66.30;;;;;;5037151;28;19917;-68
2021/07/08 10:06:27;;;;;;;;;;;22.80;66.20;;;;;;5024315;28;19917;-67
2021/07/08 10:08:56;;;;;;;;;;;22.90;66.30;;;;;;5017002;28;20284;-67
2021/07/08 10:11:23;;;;;;;;;;;22.90;66.30;;;;;;5038994;28;19996;-67
2021/07/08 10:13:48;;;;;;;;;;;22.90;66.30;;;;;;5035356;28;19928;-68
2021/07/08 10:16:14;;;;;;;;;;;22.90;66.40;;;;;;5018720;28;19921;-68
2021/07/08 10:18:40;;;;;;;;;;;22.90;66.50;;;;;;5023413;28;20106;-67
2021/07/08 10:21:06;;;;;;;;;;;22.90;66.40;;;;;;5034556;28;19963;-68
2021/07/08 10:23:34;;;;;;;;;;;22.90;66.40;;;;;;5042713;28;19996;-65
2021/07/08 10:26:00;;;;;;;;;;;22.90;66.40;;;;;;5028190;28;19913;-68
2021/07/08 10:28:26;;;;;;;;;;;22.90;66.50;;;;;;5021240;28;19947;-68
2021/07/08 10:30:52;;;;;;;;;;;22.80;66.50;;;;;;5038836;28;19953;-67
2021/07/08 10:33:18;;;;;;;;;;;22.90;66.50;;;;;;5037474;28;19927;-67
2021/07/08 10:35:44;;;;;;;;;;;22.90;66.50;;;;;;5034364;28;20383;-67
2021/07/08 10:38:29;;;;;;;;;;;22.80;66.60;;;;;;5038724;28;19913;-68
2021/07/08 10:40:54;;;;;;;;;;;22.90;66.60;;;;;;5031740;28;19920;-67
2021/07/08 10:43:31;;;;;;;;;;;22.80;66.60;;;;;;5031604;28;20555;-68
2021/07/08 10:46:00;;;;;;;;;;;22.90;66.60;;;;;;5040252;28;21318;-68
2021/07/08 10:48:26;;;;;;;;;;;22.80;66.40;;;;;;5037881;28;19913;-68
2021/07/08 10:50:51;;;;;;;;;;;22.80;66.40;;;;;;5017040;28;19920;-68
2021/07/08 10:53:17;;;;;;;;;;;22.80;67.10;;;;;;5042653;28;19917;-67
2021/07/08 10:55:43;;;;;;;;;;;22.80;66.50;;;;;;5037661;28;20404;-67
2021/07/08 10:58:27;;;;;;;;;;;22.80;66.60;;;;;;5041905;28;19936;-68
2021/07/08 11:00:52;;;;;;;;;;;22.80;66.50;;;;;;5035349;28;19964;-68
2021/07/08 11:03:39;;;;;;;;;;;22.80;66.60;;;;;;5041408;28;20522;-67
2021/07/08 11:06:25;;;;;;;;;;;22.80;66.60;;;;;;5042300;28;19986;-68
2021/07/08 11:08:52;;;;;;;;;;;22.80;66.80;;;;;;5038027;28;19923;-68
2021/07/08 11:11:23;;;;;;;;;;;22.80;66.60;;;;;;5035195;28;19970;-67
2021/07/08 11:13:55;;;;;;;;;;;22.80;66.80;;;;;;5031186;28;20684;-68
2021/07/08 11:16:40;;;;;;;;;;;22.80;66.60;;;;;;5034886;28;19921;-68
2021/07/08 11:19:05;;;;;;;;;;;22.80;66.80;;;;;;5040044;28;19919;-67
2021/07/08 11:21:49;;;;;;;;;;;22.80;66.60;;;;;;5039583;28;19913;-67
2021/07/08 11:24:18;;;;;;;;;;;22.80;66.60;;;;;;5035755;28;19913;-68
2021/07/08 11:26:52;;;;;;;;;;;22.80;66.70;;;;;;5017640;28;19924;-66
2021/07/08 11:29:36;;;;;;;;;;;22.80;66.70;;;;;;5035123;28;19917;-68
2021/07/08 11:32:21;;;;;;;;;;;22.80;66.70;;;;;;5038630;28;19936;-68
2021/07/08 11:34:50;;;;;;;;;;;22.80;66.80;;;;;;5026404;28;19917;-65
2021/07/08 11:37:17;;;;;;;;;;;22.80;66.90;;;;;;5042858;28;19920;-67
2021/07/08 11:39:42;;;;;;;;;;;22.80;66.80;;;;;;5038272;28;19920;-66
2021/07/08 11:42:08;;;;;;;;;;;22.80;66.80;;;;;;4995705;28;19921;-67
2021/07/08 11:44:34;;;;;;;;;;;22.80;67.40;;;;;;5009068;28;19914;-67
2021/07/08 11:46:59;;;;;;;;;;;22.80;66.70;;;;;;5033713;28;19962;-67
2021/07/08 11:49:26;;;;;;;;;;;22.80;66.80;;;;;;5027461;28;19925;-67
2021/07/08 11:51:51;;;;;;;;;;;22.80;66.80;;;;;;5043419;28;19965;-67
2021/07/08 11:54:17;;;;;;;;;;;22.80;66.80;;;;;;5031301;28;19921;-67
2021/07/08 11:56:42;;;;;;;;;;;22.80;66.90;;;;;;5038722;28;19928;-66
2021/07/08 11:59:08;;;;;;;;;;;22.80;66.80;;;;;;5030782;28;19928;-67
2021/07/08 12:01:33;;;;;;;;;;;22.80;66.90;;;;;;5039515;28;20284;-68
2021/07/08 12:03:59;;;;;;;;;;;22.80;66.80;;;;;;4992466;28;19917;-67
2021/07/08 12:06:29;;;;;;;;;;;22.80;66.90;;;;;;5043664;28;19969;-67
2021/07/08 12:09:00;;;;;;;;;;;22.80;66.80;;;;;;5031056;28;19917;-67
2021/07/08 12:11:32;;;;;;;;;;;22.80;66.90;;;;;;5033319;28;20054;-67
2021/07/08 12:13:57;;;;;;;;;;;22.80;66.90;;;;;;5039882;28;20539;-67
2021/07/08 12:16:30;;;;;;;;;;;22.80;66.90;;;;;;5032080;28;19928;-67
2021/07/08 12:18:56;;;;;;;;;;;22.80;67.00;;;;;;5036610;28;19913;-67
2021/07/08 12:21:22;;;;;;;;;;;22.80;66.60;;;;;;5037255;28;19912;-67
2021/07/08 12:23:48;;;;;;;;;;;22.70;66.80;;;;;;5031730;28;19917;-67
2021/07/08 12:26:33;;;;;;;;;;;22.80;66.90;;;;;;5034158;28;19925;-68
2021/07/08 12:29:17;;;;;;;;;;;22.80;66.80;;;;;;5038160;28;20572;-67
2021/07/08 12:31:48;;;;;;;;;;;22.80;66.90;;;;;;5043883;28;19917;-67
2021/07/08 12:34:13;;;;;;;;;;;22.80;66.90;;;;;;5045268;28;20045;-67
2021/07/08 12:36:39;;;;;;;;;;;22.80;67.00;;;;;;5033926;28;20762;-67
2021/07/08 12:39:04;;;;;;;;;;;22.80;67.00;;;;;;5033258;28;20839;-67
2021/07/08 12:41:30;;;;;;;;;;;22.80;66.90;;;;;;5025469;28;20625;-67
2021/07/08 12:43:55;;;;;;;;;;;22.80;67.20;;;;;;5034668;28;20343;-67
2021/07/08 12:46:27;;;;;;;;;;;22.80;67.10;;;;;;5034141;28;19921;-67
2021/07/08 12:48:52;;;;;;;;;;;22.80;67.00;;;;;;5034124;28;20291;-67
2021/07/08 12:51:18;;;;;;;;;;;22.80;67.00;;;;;;5015529;28;19917;-67
2021/07/08 12:53:43;;;;;;;;;;;22.70;67.10;;;;;;5022755;28;19940;-67
2021/07/08 12:56:09;;;;;;;;;;;22.80;67.00;;;;;;5022157;28;19966;-67
2021/07/08 12:58:36;;;;;;;;;;;22.70;67.00;;;;;;5036140;28;19913;-67
2021/07/08 13:01:05;;;;;;;;;;;22.80;67.10;;;;;;5035289;28;19967;-68
2021/07/08 13:03:34;;;;;;;;;;;22.80;67.00;;;;;;5033866;28;19921;-67
2021/07/08 13:06:12;;;;;;;;;;;22.80;67.00;;;;;;5006846;28;19913;-67
2021/07/08 13:08:38;;;;;;;;;;;22.70;66.90;;;;;;5044775;28;19921;-67
2021/07/08 13:11:22;;;;;;;;;;;22.70;66.60;;;;;;5039337;28;19935;-67
2021/07/08 13:13:48;;;;;;;;;;;22.70;66.70;;;;;;5034539;28;20397;-67
2021/07/08 13:16:17;;;;;;;;;;;22.70;66.80;;;;;;5002837;28;19921;-66
2021/07/08 13:18:42;;;;;;;;;;;22.60;66.70;;;;;;5043251;28;19913;-67
2021/07/08 13:21:11;;;;;;;;;;;22.60;66.60;;;;;;5038909;28;19923;-67
2021/07/08 13:23:37;;;;;;;;;;;22.60;66.90;;;;;;5031266;28;19913;-68
2021/07/08 13:26:16;;;;;;;;;;;22.70;66.70;;;;;;5021221;28;20339;-67
2021/07/08 13:28:42;;;;;;;;;;;22.70;66.70;;;;;;5025204;28;19916;-67
2021/07/08 13:31:12;;;;;;;;;;;22.70;66.80;;;;;;5031828;28;19967;-67
2021/07/08 13:33:38;;;;;;;;;;;22.70;66.70;;;;;;5043388;28;19967;-67
2021/07/08 13:36:05;;;;;;;;;;;22.70;66.80;;;;;;5044031;28;19912;-67
2021/07/08 13:38:35;;;;;;;;;;;22.70;67.00;;;;;;5032532;28;19913;-67
2021/07/08 13:41:07;;;;;;;;;;;22.70;66.80;;;;;;5038355;28;19917;-67
2021/07/08 13:43:33;;;;;;;;;;;22.70;67.00;;;;;;5031316;28;19917;-68
2021/07/08 13:46:08;;;;;;;;;;;22.70;66.90;;;;;;5035121;28;19923;-67
2021/07/08 13:48:34;;;;;;;;;;;22.70;67.10;;;;;;5024849;28;19999;-67
2021/07/08 13:50:59;;;;;;;;;;;22.70;66.90;;;;;;5041316;28;19944;-67
2021/07/08 13:53:25;;;;;;;;;;;22.70;66.90;;;;;;5028914;28;19919;-67
2021/07/08 13:55:50;;;;;;;;;;;22.70;66.80;;;;;;5044469;28;20598;-67
2021/07/08 13:58:16;;;;;;;;;;;22.70;67.00;;;;;;5040346;28;19913;-67
2021/07/08 14:00:41;;;;;;;;;;;22.70;67.00;;;;;;5041283;28;19913;-67
2021/07/08 14:03:07;;;;;;;;;;;22.70;66.90;;;;;;5039454;28;19978;-66
2021/07/08 14:05:32;;;;;;;;;;;22.70;67.00;;;;;;5039583;28;20236;-67
2021/07/08 14:07:58;;;;;;;;;;;22.70;66.90;;;;;;5023674;28;19918;-68
2021/07/08 14:10:24;;;;;;;;;;;22.70;66.90;;;;;;5041563;28;19924;-67
2021/07/08 14:12:49;;;;;;;;;;;22.70;66.90;;;;;;5040072;28;20017;-67
2021/07/08 14:15:14;;;;;;;;;;;22.70;66.90;;;;;;5007743;28;19920;-68